Time;durP1;ratioP1;P1;durP2;ratioP2;P2;SDS_P1;SDS_P2;PMS_P1;PMS_P2;Temp;Humidity;BMP_temperature;BMP_pressure;BME280_temperature;BME280_humidity;BME280_pressure;Samples;Min_cycle;Max_cycle;Signal;HPM_P1;HPM_P2
2021/12/01 00:00:09;;;;;;;1.88;1.55;;;;;;;2.29;100.00;95311.06;1022777;28;20031;-70
2021/12/01 00:00:39;;;;;;;1.10;0.88;;;;;;;2.30;100.00;95310.06;1025954;28;20031;-69
2021/12/01 00:01:10;;;;;;;1.35;1.20;;;;;;;2.26;100.00;95295.19;1030516;28;20304;-69
2021/12/01 00:01:41;;;;;;;1.45;1.35;;;;;;;2.31;100.00;95303.88;1034361;28;20122;-69
2021/12/01 00:02:11;;;;;;;1.38;1.25;;;;;;;2.29;100.00;95297.34;1034720;28;20017;-69
2021/12/01 00:02:41;;;;;;;1.30;1.20;;;;;;;2.37;100.00;95286.66;1018968;29;20576;-69
2021/12/01 00:03:12;;;;;;;1.23;1.13;;;;;;;2.38;100.00;95293.41;1022432;29;20042;-69
2021/12/01 00:03:42;;;;;;;1.50;1.40;;;;;;;2.35;100.00;95299.06;1022474;29;20034;-69
2021/12/01 00:04:13;;;;;;;1.50;1.40;;;;;;;2.35;100.00;95299.84;1025549;28;20153;-69
2021/12/01 00:04:43;;;;;;;1.58;1.02;;;;;;;2.36;100.00;95292.84;1021906;29;20035;-69
2021/12/01 00:05:14;;;;;;;1.58;1.48;;;;;;;2.31;100.00;95274.59;1022557;28;20396;-70
2021/12/01 00:05:44;;;;;;;1.70;1.20;;;;;;;2.39;100.00;95287.22;1026636;28;20034;-70
2021/12/01 00:06:15;;;;;;;1.40;1.30;;;;;;;2.38;100.00;95283.03;1030742;28;20037;-70
2021/12/01 00:06:45;;;;;;;1.45;1.20;;;;;;;2.39;100.00;95289.81;1030386;28;20030;-69
2021/12/01 00:07:16;;;;;;;1.08;1.00;;;;;;;2.39;100.00;95278.69;1027024;28;20046;-69
2021/12/01 00:07:47;;;;;;;1.30;1.20;;;;;;;2.41;100.00;95281.81;1030524;28;20523;-71
2021/12/01 00:08:17;;;;;;;1.35;1.25;;;;;;;2.29;100.00;95269.66;1031927;28;20034;-69
2021/12/01 00:08:48;;;;;;;1.60;1.45;;;;;;;2.35;100.00;95273.94;1030760;28;20480;-70
2021/12/01 00:09:18;;;;;;;2.78;1.30;;;;;;;2.34;100.00;95281.91;1034527;28;20041;-70
2021/12/01 00:09:49;;;;;;;1.20;1.10;;;;;;;2.36;100.00;95264.38;1030844;28;20073;-70
2021/12/01 00:10:20;;;;;;;2.63;1.75;;;;;;;2.38;100.00;95283.03;1030742;28;20038;-70
2021/12/01 00:10:51;;;;;;;1.33;1.23;;;;;;;2.36;100.00;95279.91;1034672;28;20041;-69
2021/12/01 00:11:21;;;;;;;1.42;1.33;;;;;;;2.39;100.00;95289.81;1026843;28;20644;-71
2021/12/01 00:11:51;;;;;;;1.45;1.30;;;;;;;2.34;100.00;95269.75;1026545;28;20481;-70
2021/12/01 00:12:22;;;;;;;2.72;1.58;;;;;;;2.39;100.00;95284.66;1030896;28;20078;-70
2021/12/01 00:12:52;;;;;;;1.45;1.23;;;;;;;2.44;100.00;95286.56;1026588;28;20066;-69
2021/12/01 00:13:23;;;;;;;1.30;1.20;;;;;;;2.44;100.00;95269.22;1026553;28;20117;-70
2021/12/01 00:13:53;;;;;;;1.95;1.38;;;;;;;2.39;100.00;95268.34;1021864;28;20027;-71
2021/12/01 00:14:24;;;;;;;1.55;1.30;;;;;;;2.39;100.00;95263.94;1029084;28;20136;-69
2021/12/01 00:14:54;;;;;;;1.73;1.58;;;;;;;2.44;100.00;95271.81;1029802;28;20484;-70
2021/12/01 00:15:25;;;;;;;1.05;1.05;;;;;;;2.42;100.00;95250.53;1030507;28;20033;-70
2021/12/01 00:15:55;;;;;;;1.08;1.08;;;;;;;2.41;100.00;95277.44;1026329;28;20038;-70
2021/12/01 00:16:26;;;;;;;1.35;1.25;;;;;;;2.45;100.00;95286.34;1030609;28;20435;-71
2021/12/01 00:16:56;;;;;;;1.33;1.23;;;;;;;2.50;100.00;95281.28;1028383;28;20031;-71
2021/12/01 00:17:27;;;;;;;1.63;1.50;;;;;;;2.49;100.00;95279.72;1022728;28;20038;-71
2021/12/01 00:17:57;;;;;;;1.80;1.15;;;;;;;2.48;100.00;95262.59;1026616;28;20439;-71
2021/12/01 00:18:28;;;;;;;1.20;0.93;;;;;;;2.45;100.00;95265.63;1030229;28;20121;-69
2021/12/01 00:18:58;;;;;;;1.63;1.25;;;;;;;2.50;100.00;95281.28;1026403;28;20066;-70
2021/12/01 00:19:29;;;;;;;1.48;1.38;;;;;;;2.47;100.00;95276.53;1030743;28;20023;-70
2021/12/01 00:20:00;;;;;;;1.10;1.02;;;;;;;2.54;100.00;95287.59;1030558;28;20034;-70
2021/12/01 00:20:30;;;;;;;1.20;1.10;;;;;;;2.49;100.00;95274.53;1030509;28;20030;-70
2021/12/01 00:21:01;;;;;;;1.73;1.23;;;;;;;2.49;100.00;95268.56;1026468;28;20031;-69
2021/12/01 00:21:31;;;;;;;1.38;1.27;;;;;;;2.51;100.00;95280.25;1026618;28;20030;-68
2021/12/01 00:22:02;;;;;;;1.25;1.00;;;;;;;2.50;100.00;95268.34;1026703;28;20600;-69
2021/12/01 00:22:32;;;;;;;1.42;1.33;;;;;;;2.44;100.00;95269.22;1030675;28;20026;-68
2021/12/01 00:23:03;;;;;;;1.20;1.10;;;;;;;2.47;100.00;95266.19;1029981;28;20034;-68
2021/12/01 00:23:33;;;;;;;1.30;1.20;;;;;;;2.52;100.00;95284.44;1030867;28;20041;-70
2021/12/01 00:24:04;;;;;;;1.17;1.08;;;;;;;2.55;100.00;95286.59;1030499;28;20076;-70
2021/12/01 00:24:34;;;;;;;1.52;1.25;;;;;;;2.46;100.00;95271.59;1026175;28;20033;-69
2021/12/01 00:25:06;;;;;;;1.13;1.05;;;;;;;2.52;100.00;95279.28;1030337;28;20033;-69
2021/12/01 00:25:39;;;;;;;1.20;1.10;;;;;;;2.42;100.00;95263.50;1026436;28;20077;-69
2021/12/01 00:26:10;;;;;;;1.30;1.20;;;;;;;2.44;100.00;95268.44;1022345;29;20285;-70
2021/12/01 00:26:40;;;;;;;1.30;1.00;;;;;;;2.47;100.00;95266.19;1026672;28;20273;-70
2021/12/01 00:27:11;;;;;;;1.30;1.20;;;;;;;2.53;100.00;95280.06;1026424;28;20034;-70
2021/12/01 00:27:42;;;;;;;1.73;1.10;;;;;;;2.52;100.00;95276.69;1027779;28;20547;-70
2021/12/01 00:28:13;;;;;;;1.10;1.00;;;;;;;2.53;100.00;95290.41;1034234;28;20042;-70
2021/12/01 00:28:43;;;;;;;0.75;0.75;;;;;;;2.55;100.00;95281.41;1022668;28;20378;-69
2021/12/01 00:29:14;;;;;;;1.65;1.30;;;;;;;2.56;100.00;95277.81;1018871;29;20031;-70
2021/12/01 00:29:44;;;;;;;1.00;1.00;;;;;;;2.57;100.00;95281.97;1018343;29;20028;-70
2021/12/01 00:30:15;;;;;;;1.30;1.20;;;;;;;2.50;100.00;95273.50;1030673;28;20030;-71
2021/12/01 00:30:45;;;;;;;1.08;1.00;;;;;;;2.52;100.00;95276.69;1028511;28;20506;-71
2021/12/01 00:31:16;;;;;;;1.33;1.05;;;;;;;2.57;100.00;95288.94;1036969;28;20036;-70
2021/12/01 00:31:46;;;;;;;1.65;1.55;;;;;;;2.58;100.00;95268.03;1034827;28;20186;-70
2021/12/01 00:32:17;;;;;;;1.10;1.00;;;;;;;2.63;100.00;95279.50;1033596;28;20061;-69
2021/12/01 00:32:48;;;;;;;1.25;1.15;;;;;;;2.64;100.00;95265.53;1030630;28;20061;-71
2021/12/01 00:33:22;;;;;;;1.73;1.02;;;;;;;2.63;100.00;95276.91;1030581;28;20300;-70
2021/12/01 00:33:52;;;;;;;1.17;1.10;;;;;;;2.64;100.00;95284.44;1027136;28;20034;-70
2021/12/01 00:34:23;;;;;;;2.33;1.00;;;;;;;2.65;100.00;95277.47;1030850;28;20330;-70
2021/12/01 00:34:53;;;;;;;1.35;1.20;;;;;;;2.60;100.00;95265.19;1028599;28;20554;-70
2021/12/01 00:35:24;;;;;;;1.20;1.10;;;;;;;2.67;100.00;95278.03;1022506;29;20042;-70
2021/12/01 00:35:55;;;;;;;1.55;1.20;;;;;;;2.64;100.00;95274.09;1018835;29;20086;-67
2021/12/01 00:36:28;;;;;;;1.25;1.08;;;;;;;2.63;100.00;95264.75;1024356;28;20046;-70
2021/12/01 00:36:59;;;;;;;1.20;1.10;;;;;;;2.67;100.00;95285.81;1022790;29;20283;-68
2021/12/01 00:37:29;;;;;;;1.27;1.17;;;;;;;2.66;100.00;95279.06;1022935;28;20278;-70
2021/12/01 00:38:00;;;;;;;1.30;1.20;;;;;;;2.65;100.00;95280.06;1025235;28;20035;-70
2021/12/01 00:38:30;;;;;;;1.30;1.15;;;;;;;2.64;100.00;95283.66;1030838;28;20038;-70
2021/12/01 00:39:01;;;;;;;1.60;1.30;;;;;;;2.69;100.00;95274.22;1034491;28;20065;-70
2021/12/01 00:39:31;;;;;;;2.35;1.20;;;;;;;2.69;100.00;95278.63;1034617;28;20117;-70
2021/12/01 00:40:06;;;;;;;0.95;0.95;;;;;;;2.66;100.00;95253.16;1029870;28;20046;-69
2021/12/01 00:40:36;;;;;;;1.40;1.30;;;;;;;2.65;100.00;95267.09;1026482;28;20030;-70
2021/12/01 00:41:07;;;;;;;1.30;1.20;;;;;;;2.69;100.00;95276.03;1030829;28;21045;-69
2021/12/01 00:41:38;;;;;;;1.20;1.10;;;;;;;2.68;100.00;95264.84;1029729;28;20042;-69
2021/12/01 00:42:08;;;;;;;0.90;0.88;;;;;;;2.70;100.00;95280.19;1030643;28;20273;-71
2021/12/01 00:42:40;;;;;;;1.42;1.10;;;;;;;2.73;100.00;95259.03;1027155;28;20070;-69
2021/12/01 00:43:16;;;;;;;1.20;1.10;;;;;;;2.74;100.00;95260.59;1032672;28;20554;-70
2021/12/01 00:43:46;;;;;;;1.20;1.10;;;;;;;2.73;100.00;95272.75;1030650;28;20798;-70
2021/12/01 00:44:17;;;;;;;1.33;1.10;;;;;;;2.74;100.00;95255.41;1032389;28;20304;-69
2021/12/01 00:44:55;;;;;;;1.45;1.10;;;;;;;2.74;100.00;95265.75;1034403;28;20136;-71
2021/12/01 00:45:27;;;;;;;1.05;0.95;;;;;;;2.75;100.00;95257.78;1034472;28;20076;-70
2021/12/01 00:46:08;;;;;;;1.48;1.38;;;;;;;2.70;100.00;95259.47;1031236;28;20257;-70
2021/12/01 00:46:45;;;;;;;;;;;;;;;2.76;100.00;95263.75;1035368;28;20299;-70
2021/12/01 00:47:18;;;;;;;1.30;1.20;;;;;;;2.75;100.00;95262.16;1031571;28;19988;-72
2021/12/01 00:47:53;;;;;;;1.10;1.00;;;;;;;2.68;100.00;95264.84;1032564;28;20782;-71
2021/12/01 00:48:24;;;;;;;1.20;1.10;;;;;;;2.71;100.00;95261.81;1026526;28;20276;-70
2021/12/01 00:48:55;;;;;;;1.25;1.13;;;;;;;2.77;100.00;95260.13;1023214;28;20971;-69
2021/12/01 00:49:25;;;;;;;1.17;1.10;;;;;;;2.76;100.00;95263.75;1026580;28;20286;-69
2021/12/01 00:49:56;;;;;;;1.02;1.00;;;;;;;2.75;100.00;95246.63;1030343;28;20476;-70
2021/12/01 00:50:28;;;;;;;0.95;0.93;;;;;;;2.76;100.00;95261.16;1030533;28;20030;-69
2021/12/01 00:50:58;;;;;;;1.38;1.00;;;;;;;2.75;100.00;95246.63;1030030;28;20379;-68
2021/12/01 00:51:29;;;;;;;1.38;1.15;;;;;;;2.69;100.00;95253.50;1030839;28;20356;-70
2021/12/01 00:51:59;;;;;;;0.82;0.82;;;;;;;2.72;100.00;95253.06;1030701;28;20038;-69
2021/12/01 00:52:30;;;;;;;1.20;1.10;;;;;;;2.84;100.00;95256.41;1025966;28;20081;-69
2021/12/01 00:53:03;;;;;;;1.40;1.15;;;;;;;2.85;100.00;95267.59;1029170;28;20057;-68
2021/12/01 00:53:33;;;;;;;1.20;1.10;;;;;;;2.85;100.00;95257.22;1031284;28;20026;-69
2021/12/01 00:54:04;;;;;;;1.40;1.30;;;;;;;2.83;100.00;95254.06;1034431;28;20276;-68
2021/12/01 00:54:34;;;;;;;1.45;1.25;;;;;;;2.79;100.00;95258.91;1031950;28;20077;-70
2021/12/01 00:55:06;;;;;;;1.30;1.20;;;;;;;2.74;100.00;95253.59;1034629;28;20473;-70
2021/12/01 00:55:37;;;;;;;1.33;1.23;;;;;;;2.74;100.00;95251.00;1030275;28;20030;-72
2021/12/01 00:56:07;;;;;;;1.17;1.10;;;;;;;2.77;100.00;95254.97;1026313;28;20709;-69
2021/12/01 00:56:38;;;;;;;1.38;1.27;;;;;;;2.82;100.00;95252.50;1026501;28;20070;-70
2021/12/01 00:57:08;;;;;;;1.35;1.25;;;;;;;2.82;100.00;95252.50;1030386;28;20633;-70
2021/12/01 00:57:38;;;;;;;1.50;1.40;;;;;;;2.80;100.00;95249.31;1030633;28;20033;-70
2021/12/01 00:58:11;;;;;;;1.13;0.98;;;;;;;2.83;100.00;95264.44;1030379;28;20098;-69
2021/12/01 00:58:42;;;;;;;1.13;1.10;;;;;;;2.79;100.00;95251.13;1038987;28;20038;-71
2021/12/01 00:59:12;;;;;;;1.20;1.10;;;;;;;2.78;100.00;95239.22;1039011;28;20383;-70
2021/12/01 00:59:43;;;;;;;1.30;1.20;;;;;;;2.83;100.00;95252.25;1036366;28;20289;-70
2021/12/01 01:00:13;;;;;;;0.98;0.98;;;;;;;2.82;100.00;95252.50;1026723;28;20031;-70
2021/12/01 01:00:44;;;;;;;1.40;1.30;;;;;;;2.78;100.00;95246.16;1026114;28;20400;-70
2021/12/01 01:01:14;;;;;;;1.42;1.30;;;;;;;2.87;100.00;95255.19;1026310;28;20031;-69
2021/12/01 01:01:45;;;;;;;1.27;1.15;;;;;;;2.91;100.00;95253.72;1022877;28;20015;-70
2021/12/01 01:02:16;;;;;;;1.48;1.38;;;;;;;2.86;100.00;95238.06;1022619;28;20433;-69
2021/12/01 01:02:46;;;;;;;1.25;1.15;;;;;;;2.85;100.00;95231.31;1030366;28;20120;-69
2021/12/01 01:03:17;;;;;;;1.27;1.17;;;;;;;2.90;100.00;95244.38;1027332;28;20027;-71
2021/12/01 01:03:49;;;;;;;1.98;1.20;;;;;;;2.88;100.00;95251.56;1030632;28;20467;-69
2021/12/01 01:04:19;;;;;;;1.60;1.50;;;;;;;2.86;100.00;95234.69;1034741;28;20462;-69
2021/12/01 01:04:50;;;;;;;1.35;1.25;;;;;;;2.85;100.00;95236.50;1028955;28;20273;-71
2021/12/01 01:05:20;;;;;;;1.17;1.15;;;;;;;2.82;100.00;95231.75;1030178;28;20057;-70
2021/12/01 01:05:51;;;;;;;1.40;1.20;;;;;;;2.84;100.00;95245.25;1026512;28;20030;-70
2021/12/01 01:06:21;;;;;;;1.50;1.40;;;;;;;2.81;100.00;95232.75;1026191;28;20037;-70
2021/12/01 01:06:52;;;;;;;1.38;1.27;;;;;;;2.84;100.00;95243.47;1030528;28;20077;-70
2021/12/01 01:07:22;;;;;;;1.40;1.30;;;;;;;2.86;100.00;95234.69;1038880;28;20037;-70
2021/12/01 01:07:53;;;;;;;1.17;1.10;;;;;;;2.86;100.00;95240.66;1034307;28;20073;-70
2021/12/01 01:08:23;;;;;;;1.50;1.40;;;;;;;2.78;100.00;95226.25;1034758;28;20029;-69
2021/12/01 01:08:54;;;;;;;1.40;1.30;;;;;;;2.86;100.00;95243.25;1034404;28;20022;-70
2021/12/01 01:09:30;;;;;;;1.50;1.23;;;;;;;2.86;100.00;95243.25;1030315;28;20081;-69
2021/12/01 01:10:15;;;;;;;1.30;1.20;;;;;;;2.89;100.00;95232.44;1025282;28;20467;-69
2021/12/01 01:10:56;;;;;;;1.48;1.38;;;;;;;2.76;100.00;95228.28;1030314;28;20651;-69
2021/12/01 01:16:26;;;;;;;1.40;1.30;;;;;;;2.88;100.00;95236.03;1038893;28;20783;-70
2021/12/01 01:16:58;;;;;;;1.27;1.17;;;;;;;2.91;100.00;95245.16;1034402;28;20276;-70
2021/12/01 01:17:38;;;;;;;1.30;1.20;;;;;;;2.89;100.00;95229.06;1030343;28;20041;-70
2021/12/01 01:18:10;;;;;;;1.95;1.25;;;;;;;2.89;100.00;95234.25;1026613;28;20269;-69
2021/12/01 01:18:42;;;;;;;1.13;1.02;;;;;;;2.93;100.00;95236.16;1019983;29;20036;-68
2021/12/01 01:19:13;;;;;;;1.40;1.30;;;;;;;2.81;100.00;95225.00;1022414;28;20629;-70
2021/12/01 01:19:44;;;;;;;1.30;1.20;;;;;;;2.93;100.00;95223.19;1025777;28;20270;-68
2021/12/01 01:20:14;;;;;;;0.98;0.98;;;;;;;2.95;100.00;95226.34;1027229;28;20819;-69
2021/12/01 01:20:45;;;;;;;1.40;1.30;;;;;;;2.94;100.00;95229.94;1022552;28;20069;-70
2021/12/01 01:21:15;;;;;;;1.92;1.48;;;;;;;2.87;100.00;95228.50;1026696;28;20082;-69
2021/12/01 01:21:50;;;;;;;1.50;1.10;;;;;;;2.93;100.00;95238.72;1029967;28;20030;-69
2021/12/01 01:22:22;;;;;;;1.63;1.48;;;;;;;2.93;100.00;95227.59;1019402;29;20270;-69
2021/12/01 01:22:52;;;;;;;1.40;1.30;;;;;;;2.95;100.00;95236.72;1018300;29;20303;-69
2021/12/01 01:23:24;;;;;;;1.33;1.23;;;;;;;2.94;100.00;95232.53;1025285;28;20294;-69
2021/12/01 01:23:55;;;;;;;1.00;1.00;;;;;;;2.93;100.00;95228.38;1026611;28;20102;-69
2021/12/01 01:24:25;;;;;;;1.35;1.25;;;;;;;2.93;100.00;95227.59;1026380;28;20277;-69
2021/12/01 01:24:55;;;;;;;1.60;1.38;;;;;;;2.93;100.00;95241.31;1026116;28;20058;-69
2021/12/01 01:25:27;;;;;;;1.42;1.33;;;;;;;2.93;100.00;95233.56;1030409;28;20527;-68
2021/12/01 01:25:57;;;;;;;1.38;1.27;;;;;;;2.94;100.00;95223.97;1029877;28;20042;-69
2021/12/01 01:26:28;;;;;;;0.98;0.95;;;;;;;2.95;100.00;95234.13;1036627;28;20277;-69
2021/12/01 01:26:58;;;;;;;1.40;1.30;;;;;;;2.93;100.00;95230.19;1037477;28;20037;-70
2021/12/01 01:27:29;;;;;;;1.00;1.00;;;;;;;2.98;100.00;95225.88;1034330;28;20022;-69
2021/12/01 01:27:59;;;;;;;1.00;1.00;;;;;;;2.90;100.00;95213.28;1034347;28;20505;-70
2021/12/01 01:28:30;;;;;;;1.02;1.02;;;;;;;2.88;100.00;95207.53;1039090;28;20390;-69
2021/12/01 01:29:00;;;;;;;1.40;1.30;;;;;;;2.99;100.00;95229.28;1020746;28;20110;-69
2021/12/01 01:29:34;;;;;;;1.27;1.17;;;;;;;2.98;100.00;95205.13;1026294;28;20038;-69
2021/12/01 01:30:05;;;;;;;1.20;1.10;;;;;;;2.98;100.00;95230.28;1030529;28;20034;-69
2021/12/01 01:30:36;;;;;;;1.15;1.05;;;;;;;3.05;100.00;95220.56;1028021;28;20277;-69
2021/12/01 01:31:06;;;;;;;0.90;0.90;;;;;;;3.05;100.00;95220.56;1038275;28;20033;-68
2021/12/01 01:31:37;;;;;;;1.58;1.20;;;;;;;3.02;100.00;95214.06;1042413;28;20037;-69
2021/12/01 01:32:07;;;;;;;0.90;0.90;;;;;;;3.03;100.00;95213.03;1034517;28;20030;-70
2021/12/01 01:32:38;;;;;;;1.17;1.08;;;;;;;2.96;100.00;95198.63;1038176;28;20124;-70
2021/12/01 01:33:08;;;;;;;1.13;1.02;;;;;;;3.00;100.00;95210.13;1033301;28;20033;-70
2021/12/01 01:33:39;;;;;;;1.35;1.20;;;;;;;3.04;100.00;95214.59;1038405;28;20057;-70
2021/12/01 01:34:09;;;;;;;1.00;0.90;;;;;;;3.03;100.00;95210.44;1038411;28;20053;-70
2021/12/01 01:34:40;;;;;;;1.45;1.27;;;;;;;3.04;100.00;95200.84;1033882;28;20193;-69
2021/12/01 01:35:12;;;;;;;1.13;1.02;;;;;;;3.04;100.00;95213.81;1028123;28;20022;-70
2021/12/01 01:35:43;;;;;;;1.08;1.05;;;;;;;3.03;100.00;95210.44;1030566;28;20033;-69
2021/12/01 01:36:14;;;;;;;1.30;1.08;;;;;;;3.02;100.00;95201.09;1026625;28;20277;-69
2021/12/01 01:36:44;;;;;;;1.33;1.00;;;;;;;3.03;100.00;95213.03;1022580;28;20110;-69
2021/12/01 01:37:14;;;;;;;0.88;0.88;;;;;;;3.02;100.00;95221.84;1022892;29;20086;-69
2021/12/01 01:37:45;;;;;;;0.88;0.88;;;;;;;3.02;100.00;95215.88;1022308;28;20066;-69
2021/12/01 01:38:15;;;;;;;1.00;1.00;;;;;;;2.99;100.00;95204.16;1029308;28;20298;-69
2021/12/01 01:38:46;;;;;;;1.00;0.90;;;;;;;3.01;100.00;95220.25;1026944;28;20503;-71
2021/12/01 01:39:17;;;;;;;1.00;1.00;;;;;;;3.01;100.00;95207.28;1026362;28;20041;-70
2021/12/01 01:39:47;;;;;;;3.72;0.82;;;;;;;2.93;100.00;95202.47;1026454;28;20574;-69
2021/12/01 01:40:18;;;;;;;1.08;1.00;;;;;;;2.98;100.00;95215.50;1026196;28;20026;-69
2021/12/01 01:40:48;;;;;;;0.80;0.80;;;;;;;2.98;100.00;95199.19;1022411;29;20023;-70
2021/12/01 01:41:19;;;;;;;1.38;1.27;;;;;;;3.04;100.00;95209.41;1023052;28;20654;-70
2021/12/01 01:41:52;;;;;;;1.20;1.10;;;;;;;3.10;100.00;95212.13;1023068;28;20027;-70
2021/12/01 01:42:22;;;;;;;0.93;0.93;;;;;;;3.11;100.00;95200.72;1022268;29;20134;-70
2021/12/01 01:42:53;;;;;;;0.90;0.90;;;;;;;3.12;100.00;95215.25;1026510;28;20344;-70
2021/12/01 01:43:23;;;;;;;1.00;0.88;;;;;;;3.10;100.00;95209.53;1030103;28;20033;-71
2021/12/01 01:43:54;;;;;;;0.75;0.73;;;;;;;3.11;100.00;95211.88;1026261;28;20033;-68
2021/12/01 01:44:24;;;;;;;1.38;1.13;;;;;;;3.15;100.00;95214.81;1026413;28;20053;-70
2021/12/01 01:44:55;;;;;;;1.10;0.90;;;;;;;3.17;100.00;95215.38;1025630;28;20540;-70
2021/12/01 01:45:25;;;;;;;1.38;0.95;;;;;;;3.13;100.00;95207.28;1026416;28;20081;-68
2021/12/01 01:45:56;;;;;;;0.75;0.75;;;;;;;3.09;100.00;95211.34;1026316;28;20027;-69
2021/12/01 01:46:33;;;;;;;0.65;0.65;;;;;;;3.11;100.00;95198.94;1030354;28;20023;-69
2021/12/01 01:47:04;;;;;;;1.13;1.00;;;;;;;3.22;100.00;95218.06;1032120;28;20133;-69
2021/12/01 01:47:35;;;;;;;1.02;0.93;;;;;;;3.19;100.00;95210.75;1038475;28;20268;-69
2021/12/01 01:48:13;;;;;;;0.95;0.73;;;;;;;3.22;100.00;95223.25;1034558;28;20534;-71
2021/12/01 01:48:54;;;;;;;0.90;0.90;;;;;;;3.21;100.00;95212.09;1025821;28;20280;-70
2021/12/01 01:49:40;;;;;;;;;;;;;;;3.25;100.00;95215.00;1031063;28;20332;-70
2021/12/01 01:50:26;;;;;;;0.68;0.65;;;;;;;3.24;100.00;95221.22;1030980;28;20017;-71
2021/12/01 01:50:56;;;;;;;0.50;0.50;;;;;;;3.20;100.00;95201.97;1039527;28;20248;-69
2021/12/01 01:51:27;;;;;;;1.25;0.70;;;;;;;3.13;100.00;95203.91;1027180;28;20625;-72
2021/12/01 01:51:57;;;;;;;0.77;0.77;;;;;;;3.22;100.00;95210.28;1023392;28;20489;-72
2021/12/01 01:52:29;;;;;;;0.90;0.80;;;;;;;3.25;100.00;95220.19;1027108;28;20066;-71
2021/12/01 01:52:59;;;;;;;0.65;0.65;;;;;;;3.24;100.00;95213.44;1023518;28;20039;-70
2021/12/01 01:53:30;;;;;;;1.15;1.05;;;;;;;3.28;100.00;95193.81;1031983;28;20265;-71
2021/12/01 01:54:01;;;;;;;0.63;0.63;;;;;;;3.27;100.00;95207.81;1031080;28;20104;-71
2021/12/01 01:54:31;;;;;;;0.90;0.80;;;;;;;3.24;100.00;95205.66;1024957;28;20023;-69
2021/12/01 01:55:02;;;;;;;0.57;0.57;;;;;;;3.22;100.00;95192.94;1035400;28;20034;-70
2021/12/01 01:55:33;;;;;;;1.00;0.90;;;;;;;3.28;100.00;95204.19;1031424;28;20578;-71
2021/12/01 01:56:04;;;;;;;0.60;0.57;;;;;;;3.37;100.00;95197.63;1023612;29;20418;-72
2021/12/01 01:56:35;;;;;;;0.65;0.63;;;;;;;3.36;100.00;95198.66;1019066;29;20071;-71
2021/12/01 01:57:05;;;;;;;0.75;0.75;;;;;;;3.31;100.00;95193.34;1019589;28;20284;-70
2021/12/01 01:57:36;;;;;;;0.77;0.77;;;;;;;3.31;100.00;95203.72;1024956;28;20602;-70
2021/12/01 01:58:07;;;;;;;0.75;0.75;;;;;;;3.23;100.00;95191.13;1023534;28;20062;-71
2021/12/01 01:58:38;;;;;;;1.48;0.70;;;;;;;3.30;100.00;95208.13;1023609;29;20556;-70
2021/12/01 01:59:08;;;;;;;0.70;0.70;;;;;;;3.32;100.00;95192.38;1019885;28;20282;-71
2021/12/01 01:59:39;;;;;;;0.60;0.60;;;;;;;3.38;100.00;95199.19;1031632;28;20034;-71
2021/12/01 02:00:10;;;;;;;0.50;0.50;;;;;;;3.31;100.00;95194.13;1027742;28;20109;-72
2021/12/01 02:00:49;;;;;;;0.90;0.90;;;;;;;3.34;100.00;95195.50;1026975;28;20041;-72
2021/12/01 02:01:41;;;;;;;0.60;0.60;;;;;;;3.31;100.00;95185.59;1028750;28;20270;-71
2021/12/01 02:02:12;;;;;;;0.75;0.60;;;;;;;3.38;100.00;95183.63;1031111;28;20277;-69
2021/12/01 02:02:44;;;;;;;0.57;0.50;;;;;;;3.39;100.00;95197.41;1033425;28;20253;-71
2021/12/01 02:03:15;;;;;;;0.57;0.57;;;;;;;3.34;100.00;95192.91;1035140;28;20029;-72
2021/12/01 02:03:46;;;;;;;0.60;0.60;;;;;;;3.32;100.00;95189.78;1027423;28;20697;-71
2021/12/01 02:04:17;;;;;;;1.00;0.70;;;;;;;3.33;100.00;95196.53;1023505;29;20163;-71
2021/12/01 02:04:48;;;;;;;0.70;0.50;;;;;;;3.34;100.00;95186.94;1023004;28;20028;-71
2021/12/01 02:05:19;;;;;;;0.70;0.60;;;;;;;3.30;100.00;95189.19;1024523;28;20267;-70
2021/12/01 02:05:49;;;;;;;0.47;0.47;;;;;;;3.31;100.00;95191.53;1031853;28;20118;-70
2021/12/01 02:06:23;;;;;;;1.65;0.60;;;;;;;3.30;100.00;95187.38;1027445;28;20287;-71
2021/12/01 02:06:53;;;;;;;0.70;0.70;;;;;;;3.31;100.00;95183.00;1023889;28;20059;-70
2021/12/01 02:07:24;;;;;;;0.43;0.43;;;;;;;3.23;100.00;95175.59;1031219;28;20265;-70
2021/12/01 02:07:54;;;;;;;0.70;0.60;;;;;;;3.32;100.00;95189.78;1028445;28;20026;-70
2021/12/01 02:08:30;;;;;;;0.65;0.63;;;;;;;3.34;100.00;95184.34;1031443;28;20038;-72
2021/12/01 02:09:00;;;;;;;0.65;0.50;;;;;;;3.33;100.00;95186.16;1032079;28;20034;-70
2021/12/01 02:09:31;;;;;;;0.57;0.57;;;;;;;3.35;100.00;95181.50;1037832;28;20268;-71
2021/12/01 02:10:03;;;;;;;0.68;0.68;;;;;;;3.35;100.00;95178.91;1032806;28;20022;-71
2021/12/01 02:10:33;;;;;;;0.85;0.75;;;;;;;3.34;100.00;95189.53;1035552;28;20018;-70
2021/12/01 02:11:05;;;;;;;0.57;0.57;;;;;;;3.36;100.00;95183.09;1023362;29;20267;-70
2021/12/01 02:11:35;;;;;;;0.77;0.77;;;;;;;3.34;100.00;95177.34;1020290;28;20024;-71
2021/12/01 02:12:06;;;;;;;0.60;0.60;;;;;;;3.39;100.00;95179.25;1031590;28;21088;-71
2021/12/01 02:12:39;;;;;;;0.60;0.60;;;;;;;3.38;100.00;95178.44;1032279;28;20098;-71
2021/12/01 02:13:10;;;;;;;0.45;0.45;;;;;;;3.40;100.00;95168.66;1035854;28;20026;-71
2021/12/01 02:13:41;;;;;;;0.65;0.50;;;;;;;3.39;100.00;95177.44;1027087;28;20263;-72
2021/12/01 02:14:12;;;;;;;0.63;0.63;;;;;;;3.38;100.00;95175.84;1023416;28;20277;-72
2021/12/01 02:14:42;;;;;;;0.80;0.80;;;;;;;3.41;100.00;95172.03;1022983;29;20034;-71
2021/12/01 02:15:14;;;;;;;0.70;0.70;;;;;;;3.44;100.00;95168.97;1027324;28;20069;-70
2021/12/01 02:15:44;;;;;;;1.25;0.70;;;;;;;3.45;100.00;95171.31;1023539;29;20114;-70
2021/12/01 02:16:15;;;;;;;0.70;0.70;;;;;;;3.44;100.00;95172.34;1025140;28;20321;-72
2021/12/01 02:16:46;;;;;;;0.70;0.70;;;;;;;3.41;100.00;95166.84;1027855;28;20033;-71
2021/12/01 02:17:16;;;;;;;0.52;0.50;;;;;;;3.42;100.00;95173.59;1019475;29;20023;-71
2021/12/01 02:17:47;;;;;;;0.40;0.40;;;;;;;3.40;100.00;95171.25;1021184;28;20023;-70
2021/12/01 02:18:18;;;;;;;0.90;0.60;;;;;;;3.37;100.00;95160.53;1023952;29;20030;-71
2021/12/01 02:18:48;;;;;;;0.50;0.50;;;;;;;3.38;100.00;95168.06;1023463;29;20019;-70
2021/12/01 02:19:19;;;;;;;0.82;0.70;;;;;;;3.38;100.00;95165.47;1023612;28;20343;-71
2021/12/01 02:19:53;;;;;;;1.08;0.70;;;;;;;3.38;100.00;95162.91;1031042;28;20018;-71
2021/12/01 02:20:23;;;;;;;0.57;0.57;;;;;;;3.35;100.00;95149.59;1031940;28;20523;-71
2021/12/01 02:21:16;;;;;;;1.58;0.50;;;;;;;3.40;100.00;95168.66;1032354;28;20285;-71
2021/12/01 02:21:47;;;;;;;0.77;0.77;;;;;;;3.43;100.00;95159.63;1031381;28;20026;-70
2021/12/01 02:22:17;;;;;;;0.80;0.80;;;;;;;3.43;100.00;95152.63;1035863;28;20603;-73
2021/12/01 02:22:48;;;;;;;0.75;0.63;;;;;;;3.45;100.00;95137.59;1035413;28;20018;-71
2021/12/01 02:23:18;;;;;;;2.08;0.50;;;;;;;3.46;100.00;95153.97;1039145;28;20018;-71
2021/12/01 02:23:49;;;;;;;0.55;0.55;;;;;;;3.43;100.00;95150.03;1036272;28;20104;-71
2021/12/01 02:24:20;;;;;;;0.50;0.50;;;;;;;3.39;100.00;95138.56;1027686;28;20033;-71
2021/12/01 02:24:51;;;;;;;0.57;0.57;;;;;;;3.45;100.00;95158.34;1028710;28;20109;-73
2021/12/01 02:25:24;;;;;;;0.40;0.40;;;;;;;3.46;100.00;95162.53;1023716;29;20325;-73
2021/12/01 02:25:55;;;;;;;0.63;0.45;;;;;;;3.49;100.00;95149.13;1028045;28;20038;-70
2021/12/01 02:26:26;;;;;;;0.63;0.60;;;;;;;3.47;100.00;95151.13;1035975;28;20276;-71
2021/12/01 02:26:57;;;;;;;1.10;0.50;;;;;;;3.50;100.00;95155.88;1040309;28;20032;-72
2021/12/01 02:27:27;;;;;;;1.10;0.52;;;;;;;3.50;100.00;95149.91;1039273;28;20351;-72
2021/12/01 02:27:58;;;;;;;0.68;0.68;;;;;;;3.46;100.00;95135.81;1035420;28;20078;-71
2021/12/01 02:28:29;;;;;;;0.90;0.55;;;;;;;3.47;100.00;95151.13;1031670;28;20496;-69
2021/12/01 02:29:00;;;;;;;3.22;0.57;;;;;;;3.47;100.00;95161.50;1031725;28;20030;-71
2021/12/01 02:29:31;;;;;;;0.43;0.43;;;;;;;3.49;100.00;95146.50;1021994;29;20259;-71
2021/12/01 02:30:02;;;;;;;0.50;0.50;;;;;;;3.43;100.00;95138.88;1025439;28;20270;-72
2021/12/01 02:30:32;;;;;;;0.70;0.50;;;;;;;3.38;100.00;95133.59;1027664;28;20011;-71
2021/12/01 02:31:03;;;;;;;0.75;0.55;;;;;;;3.43;100.00;95137.06;1023599;29;20441;-71
2021/12/01 02:31:35;;;;;;;1.48;0.70;;;;;;;3.42;100.00;95148.47;1026810;28;20018;-72
2021/12/01 02:32:06;;;;;;;0.90;0.60;;;;;;;3.37;100.00;95134.63;1027415;28;20392;-72
2021/12/01 02:32:37;;;;;;;0.70;0.70;;;;;;;3.34;100.00;95156.59;1027618;28;20313;-70
2021/12/01 02:33:07;;;;;;;0.55;0.55;;;;;;;3.42;100.00;95143.28;1024774;28;20062;-71